Time;durP1;ratioP1;P1;durP2;ratioP2;P2;SDS_P1;SDS_P2;PMS_P1;PMS_P2;Temp;Humidity;BMP_temperature;BMP_pressure;BME280_temperature;BME280_humidity;BME280_pressure;Samples;Min_cycle;Max_cycle;Signal;HPM_P1;HPM_P2
2024/04/12 00:01:16;;;;;;;14.13;12.70;;;;;;;;;;5595631;25;20869;-85
2024/04/12 00:03:42;;;;;;;15.60;13.63;;;;;;;;;;5588274;25;20325;-84
2024/04/12 00:06:20;;;;;;;15.47;13.87;;;;;;;;;;5574526;25;20452;-84
2024/04/12 00:08:46;;;;;;;17.27;13.97;;;;;;;;;;5570512;25;20463;-85
2024/04/12 00:11:16;;;;;;;15.43;12.77;;;;;;;;;;5573068;25;20453;-85
2024/04/12 00:13:41;;;;;;;16.23;13.90;;;;;;;;;;5579761;25;20565;-85
2024/04/12 00:16:10;;;;;;;13.80;11.67;;;;;;;;;;5561526;25;20464;-85
2024/04/12 00:18:36;;;;;;;14.23;10.93;;;;;;;;;;5594088;25;20226;-86
2024/04/12 00:21:05;;;;;;;12.77;11.40;;;;;;;;;;5582226;25;20549;-85
2024/04/12 00:23:33;;;;;;;13.27;11.57;;;;;;;;;;5574922;25;20523;-86
2024/04/12 00:26:02;;;;;;;14.83;12.93;;;;;;;;;;5567068;25;20942;-85
2024/04/12 00:28:29;;;;;;;16.50;12.80;;;;;;;;;;5581468;25;20467;-85
2024/04/12 00:30:59;;;;;;;13.70;10.93;;;;;;;;;;5578477;25;20467;-85
2024/04/12 00:33:31;;;;;;;18.67;13.80;;;;;;;;;;5582740;25;20476;-85
2024/04/12 00:35:59;;;;;;;16.30;12.73;;;;;;;;;;5591612;25;20462;-84
2024/04/12 00:38:25;;;;;;;14.40;12.87;;;;;;;;;;5585119;25;20949;-83
2024/04/12 00:41:00;;;;;;;20.47;15.50;;;;;;;;;;5582263;25;20503;-84
2024/04/12 00:43:27;;;;;;;17.30;15.07;;;;;;;;;;5580611;25;20268;-84
2024/04/12 00:45:56;;;;;;;15.63;13.53;;;;;;;;;;5587553;25;20446;-84
2024/04/12 00:48:25;;;;;;;17.33;14.53;;;;;;;;;;5579417;25;20478;-84
2024/04/12 00:50:55;;;;;;;15.57;13.57;;;;;;;;;;5588164;25;20565;-83
2024/04/12 00:53:22;;;;;;;15.03;13.00;;;;;;;;;;5590113;25;21080;-83
2024/04/12 00:56:00;;;;;;;17.37;12.70;;;;;;;;;;5592946;25;20473;-84
2024/04/12 00:58:32;;;;;;;15.70;12.57;;;;;;;;;;5580634;25;20792;-84
2024/04/12 01:01:10;;;;;;;21.13;12.87;;;;;;;;;;5586159;25;20456;-85
2024/04/12 01:03:36;;;;;;;15.40;12.67;;;;;;;;;;5584586;25;20466;-85
2024/04/12 01:06:05;;;;;;;14.90;12.23;;;;;;;;;;5589235;25;20517;-86
2024/04/12 01:08:31;;;;;;;16.37;13.17;;;;;;;;;;5592079;25;20522;-86
2024/04/12 01:10:59;;;;;;;15.20;11.77;;;;;;;;;;5580251;25;20476;-85
2024/04/12 01:13:26;;;;;;;17.00;12.20;;;;;;;;;;5575714;25;20276;-86
2024/04/12 01:15:58;;;;;;;15.13;12.40;;;;;;;;;;5600129;25;20584;-86
2024/04/12 01:18:24;;;;;;;16.60;13.23;;;;;;;;;;5599795;25;20454;-85
2024/04/12 01:20:52;;;;;;;28.20;12.17;;;;;;;;;;5573244;25;20463;-83
2024/04/12 01:23:18;;;;;;;12.57;11.40;;;;;;;;;;5590055;25;21133;-84
2024/04/12 01:25:51;;;;;;;14.53;11.90;;;;;;;;;;5588601;25;20450;-85
2024/04/12 01:28:16;;;;;;;16.37;12.20;;;;;;;;;;5586921;25;20315;-83
2024/04/12 01:30:46;;;;;;;16.47;12.90;;;;;;;;;;5591908;25;20451;-85
2024/04/12 01:33:12;;;;;;;12.20;10.90;;;;;;;;;;5592032;25;20274;-86
2024/04/12 01:35:44;;;;;;;18.27;12.10;;;;;;;;;;5580899;25;20704;-85
2024/04/12 01:38:16;;;;;;;14.60;11.93;;;;;;;;;;5568077;25;21071;-86
2024/04/12 01:40:46;;;;;;;14.13;11.03;;;;;;;;;;5596504;25;20462;-85
2024/04/12 01:43:18;;;;;;;17.10;11.50;;;;;;;;;;5572168;25;20494;-85
2024/04/12 01:45:46;;;;;;;18.73;13.57;;;;;;;;;;5586537;25;20471;-86
2024/04/12 01:48:13;;;;;;;17.30;14.57;;;;;;;;;;5596938;25;20513;-86
2024/04/12 01:50:41;;;;;;;22.53;15.40;;;;;;;;;;5594462;25;20961;-86
2024/04/12 01:53:09;;;;;;;20.27;14.67;;;;;;;;;;5583978;25;20514;-86
2024/04/12 01:55:39;;;;;;;24.30;15.47;;;;;;;;;;5572635;25;20521;-84
2024/04/12 01:58:05;;;;;;;21.17;16.10;;;;;;;;;;5577112;25;20526;-85
2024/04/12 02:00:36;;;;;;;23.10;17.80;;;;;;;;;;5585128;25;20561;-85
2024/04/12 02:03:02;;;;;;;22.13;17.03;;;;;;;;;;5594913;25;20468;-85
2024/04/12 02:05:37;;;;;;;24.60;15.33;;;;;;;;;;5578316;25;20481;-85
2024/04/12 02:08:07;;;;;;;21.17;15.37;;;;;;;;;;5576684;25;20539;-85
2024/04/12 02:10:36;;;;;;;23.57;17.40;;;;;;;;;;5578718;25;20470;-84
2024/04/12 02:13:01;;;;;;;22.80;15.43;;;;;;;;;;5569311;25;20512;-84
2024/04/12 02:15:29;;;;;;;20.33;15.97;;;;;;;;;;5575309;25;20483;-85
2024/04/12 02:17:58;;;;;;;22.77;14.53;;;;;;;;;;5573119;25;20271;-85
2024/04/12 02:20:33;;;;;;;22.10;15.47;;;;;;;;;;5585783;25;20516;-85
2024/04/12 02:23:00;;;;;;;19.57;15.00;;;;;;;;;;5587072;25;20454;-84
2024/04/12 02:25:28;;;;;;;20.20;14.90;;;;;;;;;;5592126;25;20530;-84
2024/04/12 02:27:56;;;;;;;19.00;14.43;;;;;;;;;;5605859;25;20485;-84
2024/04/12 02:30:25;;;;;;;19.90;15.53;;;;;;;;;;5603574;25;20572;-84
2024/04/12 02:32:52;;;;;;;18.57;14.00;;;;;;;;;;5557957;25;20467;-84
2024/04/12 02:35:23;;;;;;;19.30;13.87;;;;;;;;;;5595154;25;20834;-84
2024/04/12 02:37:49;;;;;;;16.33;12.33;;;;;;;;;;5571956;25;20466;-84
2024/04/12 02:40:18;;;;;;;16.03;11.97;;;;;;;;;;5597973;25;20548;-84
2024/04/12 02:42:44;;;;;;;18.07;13.17;;;;;;;;;;5580985;25;21142;-86
2024/04/12 02:45:12;;;;;;;16.53;12.60;;;;;;;;;;5599960;25;20460;-86
2024/04/12 02:47:38;;;;;;;17.33;12.63;;;;;;;;;;5579858;25;20231;-86
2024/04/12 02:50:09;;;;;;;17.57;12.00;;;;;;;;;;5573185;25;20508;-85
2024/04/12 02:52:38;;;;;;;15.07;11.93;;;;;;;;;;5591836;25;20510;-85
2024/04/12 02:55:12;;;;;;;19.80;14.17;;;;;;;;;;5595747;25;20514;-85
2024/04/12 02:57:38;;;;;;;17.90;12.70;;;;;;;;;;5589323;25;20509;-85
2024/04/12 03:00:21;;;;;;;17.33;13.23;;;;;;;;;;5598574;25;20458;-84
2024/04/12 03:02:47;;;;;;;19.87;12.33;;;;;;;;;;5597375;25;20282;-84
2024/04/12 03:05:15;;;;;;;20.50;13.23;;;;;;;;;;5599270;25;20462;-84
2024/04/12 03:07:45;;;;;;;15.83;11.77;;;;;;;;;;5572260;25;20891;-83
2024/04/12 03:10:18;;;;;;;15.57;12.70;;;;;;;;;;5577526;25;20522;-86
2024/04/12 03:12:44;;;;;;;18.27;12.40;;;;;;;;;;5578947;25;20523;-86
2024/04/12 03:15:14;;;;;;;19.40;13.47;;;;;;;;;;5596460;25;20462;-86
2024/04/12 03:17:42;;;;;;;20.00;13.80;;;;;;;;;;5580197;25;20276;-85
2024/04/12 03:20:10;;;;;;;20.03;15.80;;;;;;;;;;5570052;25;20467;-85
2024/04/12 03:22:36;;;;;;;19.50;14.83;;;;;;;;;;5579387;25;20466;-86
2024/04/12 03:25:07;;;;;;;20.40;16.27;;;;;;;;;;5595922;25;20524;-85
2024/04/12 03:27:32;;;;;;;24.27;16.70;;;;;;;;;;5581656;25;20290;-85
2024/04/12 03:30:00;;;;;;;19.63;15.73;;;;;;;;;;5573326;25;20468;-85
2024/04/12 03:32:32;;;;;;;20.20;16.40;;;;;;;;;;5585927;25;20730;-85
2024/04/12 03:35:00;;;;;;;22.77;16.17;;;;;;;;;;5589171;25;20522;-84
2024/04/12 03:37:36;;;;;;;19.43;15.17;;;;;;;;;;5561555;25;20518;-85
2024/04/12 03:40:15;;;;;;;18.50;15.70;;;;;;;;;;5588497;25;20479;-85
2024/04/12 03:42:41;;;;;;;20.87;16.20;;;;;;;;;;5563216;25;20817;-85
2024/04/12 03:45:12;;;;;;;21.90;16.90;;;;;;;;;;5587554;25;20460;-85
2024/04/12 03:47:38;;;;;;;17.03;14.37;;;;;;;;;;5574794;25;20235;-85
2024/04/12 03:50:13;;;;;;;21.10;15.73;;;;;;;;;;5594392;25;20512;-84
2024/04/12 03:52:41;;;;;;;16.10;14.30;;;;;;;;;;5566602;25;20273;-84
2024/04/12 03:55:12;;;;;;;18.73;14.97;;;;;;;;;;5585853;25;20527;-84
2024/04/12 03:57:38;;;;;;;17.87;15.43;;;;;;;;;;5575370;25;20467;-84
2024/04/12 04:00:10;;;;;;;17.30;14.70;;;;;;;;;;5593974;25;20539;-84
2024/04/12 04:02:39;;;;;;;16.97;14.10;;;;;;;;;;5594826;25;20524;-84
2024/04/12 04:05:16;;;;;;;18.70;15.73;;;;;;;;;;5594154;25;20509;-85
2024/04/12 04:07:45;;;;;;;19.07;14.80;;;;;;;;;;5586313;25;20525;-85
2024/04/12 04:10:15;;;;;;;21.73;15.30;;;;;;;;;;5603348;25;20544;-85
2024/04/12 04:12:49;;;;;;;15.83;13.90;;;;;;;;;;5557496;25;20476;-87
2024/04/12 04:15:15;;;;;;;17.60;15.30;;;;;;;;;;5580596;25;20559;-87
2024/04/12 04:17:47;;;;;;;22.33;15.47;;;;;;;;;;5575025;25;20507;-87
2024/04/12 04:20:12;;;;;;;18.80;14.77;;;;;;;;;;5603954;25;21126;-86
2024/04/12 04:22:49;;;;;;;18.00;14.70;;;;;;;;;;5568938;25;20483;-85
2024/04/12 04:25:19;;;;;;;19.00;13.77;;;;;;;;;;5592884;25;20229;-81
2024/04/12 04:27:47;;;;;;;20.37;13.40;;;;;;;;;;5580864;25;20508;-80
2024/04/12 04:30:17;;;;;;;16.07;13.20;;;;;;;;;;5558173;25;21394;-81
2024/04/12 04:32:46;;;;;;;17.47;14.07;;;;;;;;;;5591093;25;20526;-82
2024/04/12 04:35:13;;;;;;;14.70;12.23;;;;;;;;;;5574460;25;20482;-82
2024/04/12 04:37:41;;;;;;;15.40;11.10;;;;;;;;;;5583801;25;20584;-82
2024/04/12 04:40:11;;;;;;;16.27;12.83;;;;;;;;;;5569582;25;20873;-82
2024/04/12 04:42:43;;;;;;;21.90;13.07;;;;;;;;;;5567970;25;21115;-81
2024/04/12 04:45:08;;;;;;;20.43;11.63;;;;;;;;;;5587955;25;21061;-81
2024/04/12 04:47:39;;;;;;;15.90;11.23;;;;;;;;;;5599968;25;20518;-81
2024/04/12 04:50:05;;;;;;;15.37;13.70;;;;;;;;;;5595979;25;20236;-82
2024/04/12 04:52:37;;;;;;;15.73;11.77;;;;;;;;;;5585949;25;20657;-82
2024/04/12 04:55:03;;;;;;;12.33;10.40;;;;;;;;;;5587794;25;21091;-81
2024/04/12 04:57:35;;;;;;;15.73;8.30;;;;;;;;;;5572418;25;20466;-82
2024/04/12 05:00:06;;;;;;;9.00;8.00;;;;;;;;;;5596745;25;20457;-80
2024/04/12 05:02:35;;;;;;;11.53;8.17;;;;;;;;;;5579145;25;20452;-82
2024/04/12 05:05:04;;;;;;;11.40;9.47;;;;;;;;;;5591527;25;20456;-80
2024/04/12 05:07:34;;;;;;;12.73;7.83;;;;;;;;;;5563800;25;20531;-79
2024/04/12 05:10:08;;;;;;;11.20;8.07;;;;;;;;;;5595534;25;20501;-79
2024/04/12 05:12:36;;;;;;;9.00;7.90;;;;;;;;;;5593591;25;20467;-81
2024/04/12 05:15:10;;;;;;;11.37;9.27;;;;;;;;;;5581162;25;20465;-81
2024/04/12 05:17:39;;;;;;;9.77;8.77;;;;;;;;;;5573887;25;20851;-81
2024/04/12 05:20:14;;;;;;;8.73;7.53;;;;;;;;;;5581201;25;20508;-82
2024/04/12 05:22:42;;;;;;;8.80;7.50;;;;;;;;;;5593072;25;20469;-83
2024/04/12 05:25:13;;;;;;;9.00;8.00;;;;;;;;;;5582736;25;20465;-82
2024/04/12 05:27:41;;;;;;;10.67;7.37;;;;;;;;;;5600958;25;20507;-82
2024/04/12 05:30:12;;;;;;;9.37;8.20;;;;;;;;;;5604158;25;20447;-82
2024/04/12 05:32:44;;;;;;;8.90;8.00;;;;;;;;;;5586464;25;20536;-82
2024/04/12 05:35:09;;;;;;;11.23;8.17;;;;;;;;;;5591350;25;20474;-81
2024/04/12 05:37:43;;;;;;;8.80;7.90;;;;;;;;;;5589880;25;20518;-81
2024/04/12 05:40:12;;;;;;;12.57;8.80;;;;;;;;;;5576922;25;20219;-81
2024/04/12 05:42:41;;;;;;;9.40;8.40;;;;;;;;;;5595839;25;20458;-81
2024/04/12 05:45:09;;;;;;;10.40;8.57;;;;;;;;;;5574206;25;20549;-80
2024/04/12 05:47:38;;;;;;;9.57;8.60;;;;;;;;;;5590494;25;20527;-82
2024/04/12 05:50:06;;;;;;;10.83;8.40;;;;;;;;;;5588624;25;20474;-80
2024/04/12 05:52:34;;;;;;;9.70;8.67;;;;;;;;;;5596779;25;20601;-81
2024/04/12 05:55:10;;;;;;;11.57;9.00;;;;;;;;;;5585107;25;20525;-81
2024/04/12 05:57:36;;;;;;;9.27;8.37;;;;;;;;;;5586367;25;20962;-81
2024/04/12 06:00:09;;;;;;;8.90;8.00;;;;;;;;;;5584574;25;20519;-82
2024/04/12 06:02:36;;;;;;;11.17;7.80;;;;;;;;;;5585287;25;20575;-81
2024/04/12 06:05:08;;;;;;;11.63;8.50;;;;;;;;;;5575476;25;20480;-82
2024/04/12 06:07:35;;;;;;;14.10;9.07;;;;;;;;;;5601255;25;20454;-81
2024/04/12 06:10:04;;;;;;;13.70;8.20;;;;;;;;;;5567613;25;20513;-81
2024/04/12 06:12:33;;;;;;;8.53;7.53;;;;;;;;;;5566711;25;20519;-82
2024/04/12 06:15:05;;;;;;;8.53;7.50;;;;;;;;;;5581612;25;20468;-81
2024/04/12 06:17:30;;;;;;;11.50;8.07;;;;;;;;;;5571960;25;20561;-81
2024/04/12 06:19:59;;;;;;;11.00;8.13;;;;;;;;;;5595068;25;20462;-81
2024/04/12 06:22:27;;;;;;;8.90;8.10;;;;;;;;;;5571163;25;20365;-81
2024/04/12 06:24:59;;;;;;;9.77;7.50;;;;;;;;;;5581202;25;20600;-81
2024/04/12 06:27:29;;;;;;;11.53;7.50;;;;;;;;;;5584534;25;20837;-81
2024/04/12 06:29:58;;;;;;;8.63;7.70;;;;;;;;;;5588972;25;20542;-81
2024/04/12 06:32:24;;;;;;;8.83;7.60;;;;;;;;;;5592665;25;20523;-81
2024/04/12 06:34:52;;;;;;;11.63;9.20;;;;;;;;;;5582973;25;20481;-81
2024/04/12 06:37:21;;;;;;;11.43;7.97;;;;;;;;;;5576658;25;20235;-81
2024/04/12 06:39:55;;;;;;;8.27;7.47;;;;;;;;;;5580931;25;20506;-81
2024/04/12 06:42:21;;;;;;;10.00;9.00;;;;;;;;;;5573318;25;20639;-81
2024/04/12 06:44:54;;;;;;;9.03;8.10;;;;;;;;;;5571073;25;20961;-82
2024/04/12 06:47:20;;;;;;;11.63;8.40;;;;;;;;;;5580006;25;20226;-81
2024/04/12 06:49:50;;;;;;;9.27;7.50;;;;;;;;;;5566800;25;20573;-82
2024/04/12 06:52:20;;;;;;;8.50;7.60;;;;;;;;;;5568831;25;20231;-81
2024/04/12 06:54:49;;;;;;;9.67;8.30;;;;;;;;;;5588181;25;20462;-81
2024/04/12 06:57:18;;;;;;;8.23;7.43;;;;;;;;;;5583650;25;20504;-82
2024/04/12 06:59:52;;;;;;;8.83;7.93;;;;;;;;;;5581825;25;20521;-81
2024/04/12 07:02:23;;;;;;;8.17;7.27;;;;;;;;;;5571708;25;21397;-81
2024/04/12 07:04:52;;;;;;;9.23;8.33;;;;;;;;;;5593636;25;20472;-82
2024/04/12 07:07:22;;;;;;;9.20;8.40;;;;;;;;;;5568286;25;20452;-81
2024/04/12 07:09:51;;;;;;;9.43;8.30;;;;;;;;;;5582802;25;20458;-81
2024/04/12 07:12:19;;;;;;;9.20;8.00;;;;;;;;;;5584744;25;20458;-81
2024/04/12 07:14:48;;;;;;;8.07;7.27;;;;;;;;;;5603817;25;20464;-81
2024/04/12 07:17:23;;;;;;;7.90;7.20;;;;;;;;;;5595764;25;20512;-88
2024/04/12 07:19:52;;;;;;;8.63;7.70;;;;;;;;;;5584221;25;20455;-88
2024/04/12 07:22:18;;;;;;;10.17;8.50;;;;;;;;;;5581310;25;20529;-87
2024/04/12 07:24:50;;;;;;;8.30;7.57;;;;;;;;;;5589302;25;21925;-82
2024/04/12 07:27:15;;;;;;;7.23;6.63;;;;;;;;;;5575016;25;20533;-80
2024/04/12 07:29:46;;;;;;;8.10;7.40;;;;;;;;;;5585009;25;20466;-81
2024/04/12 07:32:13;;;;;;;8.57;7.73;;;;;;;;;;5582276;25;20266;-82
2024/04/12 07:34:48;;;;;;;8.37;7.40;;;;;;;;;;5579442;25;20576;-80
2024/04/12 07:37:14;;;;;;;14.20;9.27;;;;;;;;;;5568393;25;20511;-81
2024/04/12 07:39:42;;;;;;;9.17;8.30;;;;;;;;;;5585368;25;20510;-82
2024/04/12 07:42:08;;;;;;;9.00;8.13;;;;;;;;;;5573020;25;20523;-81
2024/04/12 07:44:39;;;;;;;8.40;7.60;;;;;;;;;;5597582;25;20518;-80
2024/04/12 07:47:07;;;;;;;7.50;6.80;;;;;;;;;;5580109;25;20571;-81
2024/04/12 07:49:48;;;;;;;8.03;7.33;;;;;;;;;;5584018;25;20462;-81
2024/04/12 07:52:14;;;;;;;7.77;6.97;;;;;;;;;;5559687;25;20463;-82
2024/04/12 07:54:43;;;;;;;8.43;7.63;;;;;;;;;;5592601;25;20522;-81
2024/04/12 07:57:13;;;;;;;10.63;9.53;;;;;;;;;;5572723;25;20463;-81
2024/04/12 07:59:41;;;;;;;10.10;9.10;;;;;;;;;;5583666;25;20527;-81
2024/04/12 08:02:17;;;;;;;9.57;8.67;;;;;;;;;;5568365;25;20523;-83
2024/04/12 08:04:45;;;;;;;10.10;8.97;;;;;;;;;;5590826;25;20470;-82
2024/04/12 08:07:13;;;;;;;12.40;10.40;;;;;;;;;;5588263;25;20510;-78
2024/04/12 08:09:44;;;;;;;12.03;10.67;;;;;;;;;;5569639;25;20500;-80
2024/04/12 08:12:17;;;;;;;11.57;10.33;;;;;;;;;;5576424;25;20459;-80
2024/04/12 08:14:51;;;;;;;13.40;11.60;;;;;;;;;;5582369;25;20590;-80
2024/04/12 08:17:23;;;;;;;14.97;12.00;;;;;;;;;;5579792;25;20544;-80
2024/04/12 08:19:55;;;;;;;15.87;11.60;;;;;;;;;;5588361;25;20530;-80
2024/04/12 08:22:21;;;;;;;14.53;11.83;;;;;;;;;;5570050;25;20452;-80
2024/04/12 08:24:51;;;;;;;16.60;10.97;;;;;;;;;;5588138;25;20535;-81
2024/04/12 08:27:18;;;;;;;16.30;11.43;;;;;;;;;;5574296;25;20272;-80
2024/04/12 08:29:48;;;;;;;15.97;13.67;;;;;;;;;;5589556;25;20571;-81
2024/04/12 08:32:14;;;;;;;14.00;11.67;;;;;;;;;;5583856;25;20521;-80
2024/04/12 08:34:48;;;;;;;14.97;10.67;;;;;;;;;;5588143;25;20557;-80
2024/04/12 08:37:14;;;;;;;14.03;11.53;;;;;;;;;;5572347;25;21041;-80
2024/04/12 08:39:45;;;;;;;12.40;11.13;;;;;;;;;;5579870;25;20516;-81
2024/04/12 08:42:11;;;;;;;13.70;10.80;;;;;;;;;;5594338;25;20534;-80
2024/04/12 08:44:40;;;;;;;13.33;10.63;;;;;;;;;;5596354;25;20918;-80
2024/04/12 08:47:16;;;;;;;12.77;11.47;;;;;;;;;;5582634;25;20474;-81
2024/04/12 08:49:51;;;;;;;11.33;10.17;;;;;;;;;;5591672;25;20656;-80
2024/04/12 08:52:24;;;;;;;12.20;9.00;;;;;;;;;;5592210;25;20446;-80
2024/04/12 08:54:54;;;;;;;11.83;8.43;;;;;;;;;;5580886;25;20450;-80
2024/04/12 08:57:21;;;;;;;11.73;9.27;;;;;;;;;;5580877;25;20464;-80
2024/04/12 08:59:49;;;;;;;10.23;8.30;;;;;;;;;;5580593;25;20539;-80
2024/04/12 09:02:17;;;;;;;12.17;9.63;;;;;;;;;;5571462;25;20464;-80
2024/04/12 09:04:46;;;;;;;8.87;7.97;;;;;;;;;;5588438;25;20528;-83
2024/04/12 09:07:14;;;;;;;9.83;8.83;;;;;;;;;;5568697;25;20525;-83
2024/04/12 09:09:45;;;;;;;12.07;9.00;;;;;;;;;;5597082;25;21115;-83
2024/04/12 09:12:12;;;;;;;10.83;9.13;;;;;;;;;;5580573;25;20471;-82
2024/04/12 09:14:41;;;;;;;10.43;9.03;;;;;;;;;;5596469;25;20463;-81
2024/04/12 09:17:14;;;;;;;10.13;9.13;;;;;;;;;;5592477;25;20515;-82
2024/04/12 09:19:42;;;;;;;10.67;9.17;;;;;;;;;;5589850;25;20478;-83
2024/04/12 09:22:09;;;;;;;11.87;9.70;;;;;;;;;;5571532;25;20497;-83
2024/04/12 09:24:41;;;;;;;11.83;8.83;;;;;;;;;;5577450;25;21283;-81
2024/04/12 09:27:09;;;;;;;11.90;9.83;;;;;;;;;;5587758;25;20452;-84
2024/04/12 09:29:43;;;;;;;12.97;9.50;;;;;;;;;;5577202;25;20466;-83
2024/04/12 09:34:58;;;;;;;13.83;9.93;;;;;;;;;;5594932;25;20879;-82
2024/04/12 09:40:24;;;;;;;11.83;10.57;;;;;;;;;;5602645;25;20473;-82
2024/04/12 09:43:24;;;;;;;11.43;10.33;;;;;;;;;;5576464;25;20466;-83
2024/04/12 09:45:52;;;;;;;10.40;9.30;;;;;;;;;;5575123;25;20573;-82
2024/04/12 10:38:02;;;;;;;12.80;11.50;;;;;;;;;;5601315;25;20566;-84
2024/04/12 10:40:31;;;;;;;15.50;11.57;;;;;;;;;;5593095;25;20526;-84
2024/04/12 10:43:00;;;;;;;51.50;24.07;;;;;;;;;;5570130;25;20461;-84
2024/04/12 10:45:36;;;;;;;13.30;11.37;;;;;;;;;;5578502;25;20459;-83
2024/04/12 10:48:04;;;;;;;18.67;12.40;;;;;;;;;;5587655;25;20945;-83
2024/04/12 10:50:30;;;;;;;13.67;11.30;;;;;;;;;;5593661;25;21123;-84
2024/04/12 10:53:05;;;;;;;12.23;11.10;;;;;;;;;;5583660;25;20457;-84
2024/04/12 10:55:34;;;;;;;12.80;11.50;;;;;;;;;;5603658;25;20276;-84
2024/04/12 10:58:05;;;;;;;14.90;11.97;;;;;;;;;;5583678;25;20467;-83
2024/04/12 11:00:35;;;;;;;16.57;11.80;;;;;;;;;;5591036;25;21010;-83
2024/04/12 11:03:17;;;;;;;12.87;10.80;;;;;;;;;;5562128;25;20452;-82
2024/04/12 11:05:46;;;;;;;19.47;11.00;;;;;;;;;;5582820;25;21057;-82
2024/04/12 11:08:14;;;;;;;11.57;10.00;;;;;;;;;;5580625;25;20677;-83
2024/04/12 11:10:40;;;;;;;14.30;11.43;;;;;;;;;;5589252;25;20519;-84
2024/04/12 11:13:16;;;;;;;11.17;10.07;;;;;;;;;;5590361;25;20458;-83
2024/04/12 11:32:18;;;;;;;12.63;11.43;;;;;;;;;;5584509;25;20506;-83
2024/04/12 11:34:46;;;;;;;15.77;13.03;;;;;;;;;;5578693;25;20471;-82
2024/04/12 11:37:15;;;;;;;12.37;11.00;;;;;;;;;;5581829;25;20464;-82
2024/04/12 11:39:41;;;;;;;12.20;10.90;;;;;;;;;;5580488;25;20464;-82
2024/04/12 11:42:11;;;;;;;14.07;12.40;;;;;;;;;;5588125;25;20479;-82
2024/04/12 11:44:37;;;;;;;14.07;12.77;;;;;;;;;;5575870;25;20452;-83
2024/04/12 11:47:05;;;;;;;14.20;12.90;;;;;;;;;;5586539;25;21081;-83
2024/04/12 11:49:41;;;;;;;14.00;12.73;;;;;;;;;;5574632;25;20236;-83
2024/04/12 11:52:15;;;;;;;13.27;12.07;;;;;;;;;;5583760;25;20824;-84
2024/04/12 11:54:41;;;;;;;15.70;12.30;;;;;;;;;;5571146;25;20497;-84
2024/04/12 11:57:12;;;;;;;12.83;11.60;;;;;;;;;;5573624;25;20982;-83
2024/04/12 11:59:38;;;;;;;12.07;10.93;;;;;;;;;;5574574;25;20497;-83
2024/04/12 12:02:08;;;;;;;14.43;13.00;;;;;;;;;;5574917;25;20458;-84
2024/04/12 12:04:36;;;;;;;13.80;12.37;;;;;;;;;;5596789;25;20269;-83
2024/04/12 12:07:05;;;;;;;13.40;12.07;;;;;;;;;;5586219;25;20518;-84
2024/04/12 12:09:31;;;;;;;17.73;12.17;;;;;;;;;;5592645;25;20514;-83
2024/04/12 12:12:00;;;;;;;12.20;11.10;;;;;;;;;;5593157;25;20513;-83
2024/04/12 12:14:26;;;;;;;14.20;11.63;;;;;;;;;;5589585;25;20527;-82
2024/04/12 12:16:57;;;;;;;14.00;12.80;;;;;;;;;;5582548;25;20506;-84
2024/04/12 12:19:23;;;;;;;12.90;11.60;;;;;;;;;;5591807;25;20329;-84
2024/04/12 12:21:53;;;;;;;13.50;12.20;;;;;;;;;;5584865;25;20470;-84
2024/04/12 12:24:19;;;;;;;13.57;12.17;;;;;;;;;;5583567;25;20319;-83
2024/04/12 12:26:49;;;;;;;15.20;13.60;;;;;;;;;;5579155;25;20454;-83
2024/04/12 12:29:16;;;;;;;13.60;12.20;;;;;;;;;;5586860;25;20474;-84
2024/04/12 12:31:44;;;;;;;13.03;11.90;;;;;;;;;;5585493;25;20464;-84
2024/04/12 12:34:10;;;;;;;13.27;11.50;;;;;;;;;;5577394;25;20470;-83
2024/04/12 12:36:38;;;;;;;14.70;12.50;;;;;;;;;;5571574;25;20502;-82
2024/04/12 12:39:09;;;;;;;17.00;15.40;;;;;;;;;;5593026;25;20334;-83
2024/04/12 12:41:38;;;;;;;14.83;13.40;;;;;;;;;;5592069;25;21062;-83
2024/04/12 12:44:06;;;;;;;19.50;15.27;;;;;;;;;;5586410;25;20923;-83
2024/04/12 12:46:34;;;;;;;16.07;14.47;;;;;;;;;;5586945;25;20462;-82
2024/04/12 12:49:01;;;;;;;15.53;13.90;;;;;;;;;;5582207;25;20472;-82
2024/04/12 12:51:29;;;;;;;15.00;13.50;;;;;;;;;;5579804;25;20574;-83
2024/04/12 12:53:55;;;;;;;15.83;14.17;;;;;;;;;;5579267;25;21130;-83
2024/04/12 12:56:31;;;;;;;15.90;13.67;;;;;;;;;;5567426;25;20455;-83
2024/04/12 12:58:59;;;;;;;14.77;13.37;;;;;;;;;;5572778;25;20231;-83
2024/04/12 13:01:34;;;;;;;16.00;14.50;;;;;;;;;;5588949;25;20470;-83
2024/04/12 13:04:02;;;;;;;17.90;16.10;;;;;;;;;;5577076;25;20533;-82
2024/04/12 13:06:30;;;;;;;18.00;16.03;;;;;;;;;;5576542;25;20475;-83
2024/04/12 13:08:59;;;;;;;23.73;13.60;;;;;;;;;;5582873;25;20456;-83
2024/04/12 13:11:29;;;;;;;16.30;14.80;;;;;;;;;;5561952;25;20453;-83
2024/04/12 13:13:56;;;;;;;15.93;14.40;;;;;;;;;;5568664;25;20819;-83
2024/04/12 13:16:24;;;;;;;16.00;14.53;;;;;;;;;;5581840;25;20538;-82
2024/04/12 13:18:51;;;;;;;16.07;14.47;;;;;;;;;;5581635;25;20513;-83
2024/04/12 13:21:23;;;;;;;15.37;13.93;;;;;;;;;;5576324;25;20468;-81
2024/04/12 13:23:49;;;;;;;14.50;12.77;;;;;;;;;;5570812;25;20472;-82
2024/04/12 13:26:31;;;;;;;16.20;13.77;;;;;;;;;;5567390;25;20494;-83
2024/04/12 13:28:59;;;;;;;15.33;13.77;;;;;;;;;;5576756;25;20516;-83
2024/04/12 13:31:29;;;;;;;14.83;13.50;;;;;;;;;;5573332;25;20532;-83
2024/04/12 13:33:55;;;;;;;15.63;14.13;;;;;;;;;;5585858;25;21062;-83
2024/04/12 13:36:23;;;;;;;15.13;13.60;;;;;;;;;;5580309;25;20455;-82
2024/04/12 13:38:49;;;;;;;14.20;13.00;;;;;;;;;;5584694;25;20219;-83
2024/04/12 13:41:18;;;;;;;13.57;12.33;;;;;;;;;;5582056;25;21074;-83
2024/04/12 13:43:46;;;;;;;14.80;13.37;;;;;;;;;;5569575;25;20255;-81
2024/04/12 13:51:49;;;;;;;15.07;13.67;;;;;;;;;;5577299;25;21476;-81
2024/04/12 13:54:20;;;;;;;14.23;12.73;;;;;;;;;;5584146;25;20454;-78
2024/04/12 13:56:46;;;;;;;14.97;12.70;;;;;;;;;;5591626;25;20504;-82
2024/04/12 13:59:14;;;;;;;14.10;12.70;;;;;;;;;;5579760;25;20589;-82
2024/04/12 14:01:43;;;;;;;14.73;13.33;;;;;;;;;;5580810;25;20526;-82
2024/04/12 14:04:18;;;;;;;16.30;14.13;;;;;;;;;;5575336;25;20506;-82
2024/04/12 14:06:46;;;;;;;18.43;13.07;;;;;;;;;;5585521;25;20465;-83
2024/04/12 14:09:21;;;;;;;15.00;13.60;;;;;;;;;;5585407;25;20457;-83
2024/04/12 14:11:47;;;;;;;14.90;13.27;;;;;;;;;;5573856;25;20510;-80
2024/04/12 14:14:20;;;;;;;14.00;12.60;;;;;;;;;;5609133;25;21066;-82
2024/04/12 14:16:48;;;;;;;14.53;12.70;;;;;;;;;;5573759;25;20545;-83
2024/04/12 14:19:20;;;;;;;13.63;12.30;;;;;;;;;;5580641;25;20517;-83
2024/04/12 14:21:46;;;;;;;13.10;11.90;;;;;;;;;;5566052;25;21024;-82
2024/04/12 14:24:56;;;;;;;14.23;12.50;;;;;;;;;;5579870;25;20538;-82
2024/04/12 14:27:00;;;;;;;13.33;12.23;;;;;;;;;;5580595;25;20520;-82
2024/04/12 14:29:29;;;;;;;12.40;11.33;;;;;;;;;;5581360;25;20451;-83
2024/04/12 14:31:57;;;;;;;13.27;12.17;;;;;;;;;;5578063;25;20268;-81
2024/04/12 14:34:28;;;;;;;12.50;11.50;;;;;;;;;;5563859;25;20568;-81
2024/04/12 14:36:56;;;;;;;13.20;12.10;;;;;;;;;;5571307;25;20869;-81
2024/04/12 14:39:28;;;;;;;13.40;12.10;;;;;;;;;;5588122;25;20470;-81
2024/04/12 14:41:55;;;;;;;13.83;12.40;;;;;;;;;;5586898;25;20458;-81
2024/04/12 14:44:23;;;;;;;12.87;11.67;;;;;;;;;;5591107;25;20539;-81
2024/04/12 14:46:49;;;;;;;14.73;11.97;;;;;;;;;;5592854;25;20545;-80
2024/04/12 14:49:20;;;;;;;12.70;11.70;;;;;;;;;;5589677;25;20450;-80
2024/04/12 14:51:45;;;;;;;13.27;11.90;;;;;;;;;;5580418;25;20259;-80
2024/04/12 14:54:14;;;;;;;14.50;11.40;;;;;;;;;;5560731;25;20586;-80
2024/04/12 14:56:39;;;;;;;11.17;10.30;;;;;;;;;;5587072;25;20234;-81
2024/04/12 14:59:11;;;;;;;12.23;11.23;;;;;;;;;;5591815;25;20458;-81
2024/04/12 15:01:36;;;;;;;13.60;12.40;;;;;;;;;;5594534;25;20219;-80
2024/04/12 15:47:59;;;;;;;14.80;13.37;;;;;;;;;;5596853;25;20914;-81
2024/04/12 15:50:30;;;;;;;13.27;11.97;;;;;;;;;;5590263;25;20462;-81
2024/04/12 16:12:09;;;;;;;11.63;10.73;;;;;;;;;;5594041;25;20500;-80
2024/04/12 16:14:37;;;;;;;13.80;11.40;;;;;;;;;;5581346;25;20575;-79
2024/04/12 16:17:05;;;;;;;13.27;12.10;;;;;;;;;;5599709;25;20514;-80
2024/04/12 16:19:34;;;;;;;12.27;11.07;;;;;;;;;;5600602;25;20572;-80
2024/04/12 16:22:01;;;;;;;11.70;10.60;;;;;;;;;;5594546;25;20463;-80
2024/04/12 16:24:29;;;;;;;11.03;10.03;;;;;;;;;;5599002;25;20454;-84
2024/04/12 16:26:54;;;;;;;12.57;11.27;;;;;;;;;;5595189;25;20462;-81
2024/04/12 16:29:25;;;;;;;11.87;10.77;;;;;;;;;;5587458;25;20534;-83
2024/04/12 16:31:51;;;;;;;12.33;11.20;;;;;;;;;;5588173;25;20279;-83
2024/04/12 16:34:19;;;;;;;13.70;10.90;;;;;;;;;;5578241;25;20463;-81
2024/04/12 16:36:44;;;;;;;11.67;10.57;;;;;;;;;;5580707;25;20274;-83
2024/04/12 16:39:14;;;;;;;12.03;10.83;;;;;;;;;;5591384;25;20507;-82
2024/04/12 16:41:43;;;;;;;12.40;10.90;;;;;;;;;;5591523;25;20522;-82
2024/04/12 16:44:11;;;;;;;11.73;10.53;;;;;;;;;;5577475;25;20459;-83
2024/04/12 16:46:43;;;;;;;12.50;11.40;;;;;;;;;;5579484;25;20987;-83
2024/04/12 16:49:09;;;;;;;13.27;11.77;;;;;;;;;;5576697;25;21091;-81
2024/04/12 16:51:37;;;;;;;12.93;11.63;;;;;;;;;;5589515;25;20510;-80
2024/04/12 16:54:02;;;;;;;14.83;11.40;;;;;;;;;;5583699;25;20227;-81